sensor_id;sensor_type;location;lat;lon;timestamp;P1;durP1;ratioP1;P2;durP2;ratioP2
54875;SDS011;40764;48.472;8.166;2023-04-24T00:03:36;1.63;;;1.13;;
54875;SDS011;40764;48.472;8.166;2023-04-24T00:09:38;1.00;;;0.90;;
54875;SDS011;40764;48.472;8.166;2023-04-24T00:15:39;2.63;;;1.27;;
54875;SDS011;40764;48.472;8.166;2023-04-24T00:21:39;3.08;;;1.83;;
54875;SDS011;40764;48.472;8.166;2023-04-24T00:27:41;2.15;;;1.30;;
54875;SDS011;40764;48.472;8.166;2023-04-24T00:33:41;2.33;;;1.17;;
54875;SDS011;40764;48.472;8.166;2023-04-24T00:39:41;0.77;;;0.70;;
54875;SDS011;40764;48.472;8.166;2023-04-24T00:45:42;6.50;;;2.90;;
54875;SDS011;40764;48.472;8.166;2023-04-24T00:51:43;3.87;;;1.93;;
54875;SDS011;40764;48.472;8.166;2023-04-24T00:57:45;5.85;;;2.38;;
54875;SDS011;40764;48.472;8.166;2023-04-24T01:03:47;4.30;;;1.88;;
54875;SDS011;40764;48.472;8.166;2023-04-24T01:09:49;4.18;;;1.20;;
54875;SDS011;40764;48.472;8.166;2023-04-24T01:15:51;3.43;;;1.40;;
54875;SDS011;40764;48.472;8.166;2023-04-24T01:21:51;2.60;;;0.90;;
54875;SDS011;40764;48.472;8.166;2023-04-24T01:27:54;3.20;;;1.02;;
54875;SDS011;40764;48.472;8.166;2023-04-24T01:33:54;3.37;;;1.17;;
54875;SDS011;40764;48.472;8.166;2023-04-24T01:39:56;4.47;;;0.95;;
54875;SDS011;40764;48.472;8.166;2023-04-24T01:45:56;2.22;;;1.00;;
54875;SDS011;40764;48.472;8.166;2023-04-24T01:51:56;2.60;;;1.58;;
54875;SDS011;40764;48.472;8.166;2023-04-24T01:57:57;4.72;;;2.25;;
54875;SDS011;40764;48.472;8.166;2023-04-24T02:03:59;5.30;;;1.00;;
54875;SDS011;40764;48.472;8.166;2023-04-24T02:10:00;1.27;;;0.90;;
54875;SDS011;40764;48.472;8.166;2023-04-24T02:16:00;2.88;;;0.85;;
54875;SDS011;40764;48.472;8.166;2023-04-24T02:22:01;1.40;;;0.93;;
54875;SDS011;40764;48.472;8.166;2023-04-24T02:28:01;2.03;;;0.82;;
54875;SDS011;40764;48.472;8.166;2023-04-24T02:34:02;0.60;;;0.60;;
54875;SDS011;40764;48.472;8.166;2023-04-24T02:40:02;5.07;;;0.83;;
54875;SDS011;40764;48.472;8.166;2023-04-24T02:46:04;1.17;;;0.73;;
54875;SDS011;40764;48.472;8.166;2023-04-24T02:52:04;0.43;;;0.43;;
54875;SDS011;40764;48.472;8.166;2023-04-24T02:58:05;1.07;;;0.70;;
54875;SDS011;40764;48.472;8.166;2023-04-24T03:04:05;2.83;;;0.80;;
54875;SDS011;40764;48.472;8.166;2023-04-24T03:10:06;1.90;;;0.93;;
54875;SDS011;40764;48.472;8.166;2023-04-24T03:16:07;0.77;;;0.77;;
54875;SDS011;40764;48.472;8.166;2023-04-24T03:22:07;1.95;;;0.90;;
54875;SDS011;40764;48.472;8.166;2023-04-24T03:28:09;1.95;;;0.90;;
54875;SDS011;40764;48.472;8.166;2023-04-24T03:34:09;1.57;;;0.83;;
54875;SDS011;40764;48.472;8.166;2023-04-24T03:40:10;0.70;;;0.60;;
54875;SDS011;40764;48.472;8.166;2023-04-24T03:46:10;7.67;;;1.87;;
54875;SDS011;40764;48.472;8.166;2023-04-24T03:52:10;5.70;;;1.80;;
54875;SDS011;40764;48.472;8.166;2023-04-24T03:58:11;1.08;;;0.90;;
54875;SDS011;40764;48.472;8.166;2023-04-24T04:04:11;4.43;;;2.00;;
54875;SDS011;40764;48.472;8.166;2023-04-24T04:10:12;2.37;;;1.70;;
54875;SDS011;40764;48.472;8.166;2023-04-24T04:16:12;6.32;;;2.20;;
54875;SDS011;40764;48.472;8.166;2023-04-24T04:22:12;11.18;;;4.35;;
54875;SDS011;40764;48.472;8.166;2023-04-24T04:28:13;6.75;;;2.33;;
54875;SDS011;40764;48.472;8.166;2023-04-24T04:34:13;4.33;;;2.00;;
54875;SDS011;40764;48.472;8.166;2023-04-24T04:40:14;7.50;;;3.00;;
54875;SDS011;40764;48.472;8.166;2023-04-24T04:46:14;6.10;;;3.63;;
54875;SDS011;40764;48.472;8.166;2023-04-24T04:52:15;4.40;;;2.27;;
54875;SDS011;40764;48.472;8.166;2023-04-24T04:58:17;14.20;;;7.35;;
54875;SDS011;40764;48.472;8.166;2023-04-24T05:04:17;10.75;;;3.22;;
54875;SDS011;40764;48.472;8.166;2023-04-24T05:10:18;8.17;;;3.27;;
54875;SDS011;40764;48.472;8.166;2023-04-24T05:16:18;17.73;;;5.57;;
54875;SDS011;40764;48.472;8.166;2023-04-24T05:22:18;6.33;;;1.83;;
54875;SDS011;40764;48.472;8.166;2023-04-24T05:28:20;5.35;;;2.67;;
54875;SDS011;40764;48.472;8.166;2023-04-24T05:34:21;10.13;;;3.45;;
54875;SDS011;40764;48.472;8.166;2023-04-24T05:40:21;5.70;;;2.53;;
54875;SDS011;40764;48.472;8.166;2023-04-24T05:46:22;11.83;;;4.27;;
54875;SDS011;40764;48.472;8.166;2023-04-24T05:52:22;5.38;;;2.10;;
54875;SDS011;40764;48.472;8.166;2023-04-24T05:58:22;5.05;;;1.98;;
54875;SDS011;40764;48.472;8.166;2023-04-24T06:04:22;3.90;;;2.22;;
54875;SDS011;40764;48.472;8.166;2023-04-24T06:10:23;6.00;;;2.83;;
54875;SDS011;40764;48.472;8.166;2023-04-24T06:16:23;8.63;;;2.77;;
54875;SDS011;40764;48.472;8.166;2023-04-24T06:22:24;5.40;;;2.65;;
54875;SDS011;40764;48.472;8.166;2023-04-24T06:28:24;4.93;;;2.60;;
54875;SDS011;40764;48.472;8.166;2023-04-24T06:34:25;9.27;;;3.53;;
54875;SDS011;40764;48.472;8.166;2023-04-24T06:40:25;12.35;;;4.32;;
54875;SDS011;40764;48.472;8.166;2023-04-24T06:46:26;3.53;;;2.22;;
54875;SDS011;40764;48.472;8.166;2023-04-24T06:52:27;2.83;;;1.95;;
54875;SDS011;40764;48.472;8.166;2023-04-24T06:58:28;4.17;;;2.00;;
54875;SDS011;40764;48.472;8.166;2023-04-24T07:04:28;5.03;;;1.70;;
54875;SDS011;40764;48.472;8.166;2023-04-24T07:10:29;4.57;;;2.10;;
54875;SDS011;40764;48.472;8.166;2023-04-24T07:16:30;6.60;;;2.40;;
54875;SDS011;40764;48.472;8.166;2023-04-24T07:22:30;4.57;;;1.90;;
54875;SDS011;40764;48.472;8.166;2023-04-24T07:28:31;3.50;;;1.87;;
54875;SDS011;40764;48.472;8.166;2023-04-24T07:34:31;4.13;;;2.03;;
54875;SDS011;40764;48.472;8.166;2023-04-24T07:40:31;8.50;;;2.45;;
54875;SDS011;40764;48.472;8.166;2023-04-24T07:46:32;7.20;;;2.35;;
54875;SDS011;40764;48.472;8.166;2023-04-24T07:52:32;5.67;;;1.63;;
54875;SDS011;40764;48.472;8.166;2023-04-24T07:58:33;5.25;;;1.92;;
54875;SDS011;40764;48.472;8.166;2023-04-24T08:04:33;4.83;;;1.70;;
54875;SDS011;40764;48.472;8.166;2023-04-24T08:10:34;4.10;;;1.83;;
54875;SDS011;40764;48.472;8.166;2023-04-24T08:16:34;4.10;;;2.10;;
54875;SDS011;40764;48.472;8.166;2023-04-24T08:22:35;1.97;;;1.50;;
54875;SDS011;40764;48.472;8.166;2023-04-24T08:28:35;4.23;;;1.40;;
54875;SDS011;40764;48.472;8.166;2023-04-24T08:34:36;5.88;;;1.60;;
54875;SDS011;40764;48.472;8.166;2023-04-24T08:40:36;1.80;;;1.40;;
54875;SDS011;40764;48.472;8.166;2023-04-24T08:46:37;8.50;;;1.70;;
54875;SDS011;40764;48.472;8.166;2023-04-24T08:52:37;3.83;;;1.73;;
54875;SDS011;40764;48.472;8.166;2023-04-24T08:58:37;5.23;;;1.70;;
54875;SDS011;40764;48.472;8.166;2023-04-24T09:04:40;3.97;;;1.77;;
54875;SDS011;40764;48.472;8.166;2023-04-24T09:10:40;2.90;;;1.33;;
54875;SDS011;40764;48.472;8.166;2023-04-24T09:16:41;4.47;;;1.90;;
54875;SDS011;40764;48.472;8.166;2023-04-24T09:22:42;4.93;;;1.53;;
54875;SDS011;40764;48.472;8.166;2023-04-24T09:28:43;3.25;;;1.83;;
54875;SDS011;40764;48.472;8.166;2023-04-24T09:34:45;4.00;;;1.25;;
54875;SDS011;40764;48.472;8.166;2023-04-24T09:40:47;4.40;;;1.58;;
54875;SDS011;40764;48.472;8.166;2023-04-24T09:46:49;5.43;;;1.83;;
54875;SDS011;40764;48.472;8.166;2023-04-24T09:53:06;4.72;;;1.30;;
54875;SDS011;40764;48.472;8.166;2023-04-24T09:59:08;2.75;;;1.25;;
54875;SDS011;40764;48.472;8.166;2023-04-24T10:05:09;1.97;;;1.50;;
54875;SDS011;40764;48.472;8.166;2023-04-24T10:11:11;3.92;;;1.20;;
54875;SDS011;40764;48.472;8.166;2023-04-24T10:23:14;7.55;;;1.88;;
54875;SDS011;40764;48.472;8.166;2023-04-24T10:29:16;10.63;;;2.67;;
54875;SDS011;40764;48.472;8.166;2023-04-24T10:35:18;9.38;;;2.63;;
54875;SDS011;40764;48.472;8.166;2023-04-24T10:41:19;10.07;;;2.20;;
54875;SDS011;40764;48.472;8.166;2023-04-24T10:47:23;5.95;;;1.98;;
54875;SDS011;40764;48.472;8.166;2023-04-24T10:53:24;7.77;;;2.50;;
54875;SDS011;40764;48.472;8.166;2023-04-24T10:59:28;9.27;;;2.53;;
54875;SDS011;40764;48.472;8.166;2023-04-24T11:05:51;3.03;;;2.08;;
54875;SDS011;40764;48.472;8.166;2023-04-24T11:12:02;4.90;;;1.40;;
54875;SDS011;40764;48.472;8.166;2023-04-24T11:18:06;4.47;;;1.23;;
54875;SDS011;40764;48.472;8.166;2023-04-24T11:30:40;4.35;;;2.58;;
54875;SDS011;40764;48.472;8.166;2023-04-24T11:36:44;3.50;;;1.57;;
54875;SDS011;40764;48.472;8.166;2023-04-24T11:42:47;3.72;;;2.10;;
54875;SDS011;40764;48.472;8.166;2023-04-24T11:48:49;5.45;;;2.22;;
54875;SDS011;40764;48.472;8.166;2023-04-24T11:54:49;7.00;;;3.80;;
54875;SDS011;40764;48.472;8.166;2023-04-24T12:00:55;6.73;;;2.90;;
54875;SDS011;40764;48.472;8.166;2023-04-24T12:07:00;3.60;;;2.03;;
54875;SDS011;40764;48.472;8.166;2023-04-24T12:13:01;4.30;;;2.10;;
54875;SDS011;40764;48.472;8.166;2023-04-24T12:19:02;9.30;;;3.57;;
54875;SDS011;40764;48.472;8.166;2023-04-24T12:25:03;4.83;;;1.50;;
54875;SDS011;40764;48.472;8.166;2023-04-24T12:31:05;3.80;;;1.65;;
54875;SDS011;40764;48.472;8.166;2023-04-24T12:37:10;2.87;;;1.33;;
54875;SDS011;40764;48.472;8.166;2023-04-24T12:43:17;3.35;;;1.33;;
54875;SDS011;40764;48.472;8.166;2023-04-24T12:49:19;3.90;;;1.65;;
54875;SDS011;40764;48.472;8.166;2023-04-24T12:55:19;3.80;;;1.65;;
54875;SDS011;40764;48.472;8.166;2023-04-24T13:01:19;3.17;;;1.30;;
54875;SDS011;40764;48.472;8.166;2023-04-24T13:07:20;2.38;;;1.73;;
54875;SDS011;40764;48.472;8.166;2023-04-24T13:13:20;4.50;;;1.20;;
54875;SDS011;40764;48.472;8.166;2023-04-24T13:19:21;8.80;;;3.65;;
54875;SDS011;40764;48.472;8.166;2023-04-24T13:25:21;4.93;;;1.90;;
54875;SDS011;40764;48.472;8.166;2023-04-24T13:37:23;10.50;;;1.48;;
54875;SDS011;40764;48.472;8.166;2023-04-24T13:43:24;5.18;;;2.05;;
54875;SDS011;40764;48.472;8.166;2023-04-24T13:49:24;7.27;;;2.43;;
54875;SDS011;40764;48.472;8.166;2023-04-24T13:55:25;4.83;;;1.40;;
54875;SDS011;40764;48.472;8.166;2023-04-24T14:01:26;4.80;;;1.57;;
54875;SDS011;40764;48.472;8.166;2023-04-24T14:07:26;3.13;;;1.50;;
54875;SDS011;40764;48.472;8.166;2023-04-24T14:13:28;5.68;;;1.95;;
54875;SDS011;40764;48.472;8.166;2023-04-24T14:19:28;9.60;;;1.83;;
54875;SDS011;40764;48.472;8.166;2023-04-24T14:25:29;9.32;;;2.30;;
54875;SDS011;40764;48.472;8.166;2023-04-24T14:31:30;10.17;;;4.00;;
54875;SDS011;40764;48.472;8.166;2023-04-24T14:37:30;5.65;;;2.00;;
54875;SDS011;40764;48.472;8.166;2023-04-24T14:43:30;3.03;;;2.30;;
54875;SDS011;40764;48.472;8.166;2023-04-24T14:49:31;8.07;;;3.05;;
54875;SDS011;40764;48.472;8.166;2023-04-24T14:55:31;6.20;;;2.85;;
54875;SDS011;40764;48.472;8.166;2023-04-24T15:01:33;6.88;;;2.25;;
54875;SDS011;40764;48.472;8.166;2023-04-24T15:07:33;4.97;;;2.72;;
54875;SDS011;40764;48.472;8.166;2023-04-24T15:13:35;4.68;;;1.85;;
54875;SDS011;40764;48.472;8.166;2023-04-24T15:19:35;5.78;;;2.78;;
54875;SDS011;40764;48.472;8.166;2023-04-24T15:25:36;5.38;;;2.17;;
54875;SDS011;40764;48.472;8.166;2023-04-24T15:31:37;4.67;;;1.63;;
54875;SDS011;40764;48.472;8.166;2023-04-24T15:37:40;7.05;;;3.35;;
54875;SDS011;40764;48.472;8.166;2023-04-24T15:43:40;4.17;;;2.37;;
54875;SDS011;40764;48.472;8.166;2023-04-24T15:49:41;1.83;;;1.30;;
54875;SDS011;40764;48.472;8.166;2023-04-24T15:55:41;4.28;;;1.75;;
54875;SDS011;40764;48.472;8.166;2023-04-24T16:01:42;2.00;;;1.80;;
54875;SDS011;40764;48.472;8.166;2023-04-24T16:07:42;22.57;;;12.73;;
54875;SDS011;40764;48.472;8.166;2023-04-24T16:13:42;8.65;;;2.60;;
54875;SDS011;40764;48.472;8.166;2023-04-24T16:19:43;4.27;;;1.97;;
54875;SDS011;40764;48.472;8.166;2023-04-24T16:25:43;6.93;;;2.35;;
54875;SDS011;40764;48.472;8.166;2023-04-24T16:31:43;4.13;;;2.20;;
54875;SDS011;40764;48.472;8.166;2023-04-24T16:37:44;2.83;;;1.93;;
54875;SDS011;40764;48.472;8.166;2023-04-24T16:43:45;9.47;;;5.17;;
54875;SDS011;40764;48.472;8.166;2023-04-24T16:49:45;6.00;;;4.80;;
54875;SDS011;40764;48.472;8.166;2023-04-24T16:55:45;7.30;;;2.17;;
54875;SDS011;40764;48.472;8.166;2023-04-24T17:01:46;10.90;;;3.90;;
54875;SDS011;40764;48.472;8.166;2023-04-24T17:07:47;8.50;;;5.25;;
54875;SDS011;40764;48.472;8.166;2023-04-24T17:13:48;5.38;;;3.00;;
54875;SDS011;40764;48.472;8.166;2023-04-24T17:19:49;45.90;;;19.13;;
54875;SDS011;40764;48.472;8.166;2023-04-24T17:25:50;3.03;;;2.33;;
54875;SDS011;40764;48.472;8.166;2023-04-24T17:31:50;6.37;;;2.60;;
54875;SDS011;40764;48.472;8.166;2023-04-24T17:37:51;2.28;;;1.85;;
54875;SDS011;40764;48.472;8.166;2023-04-24T17:43:51;2.33;;;2.03;;
54875;SDS011;40764;48.472;8.166;2023-04-24T17:49:51;7.15;;;3.97;;
54875;SDS011;40764;48.472;8.166;2023-04-24T17:55:52;9.30;;;3.53;;
54875;SDS011;40764;48.472;8.166;2023-04-24T18:01:53;12.30;;;5.27;;
54875;SDS011;40764;48.472;8.166;2023-04-24T18:07:54;8.33;;;4.10;;
54875;SDS011;40764;48.472;8.166;2023-04-24T18:13:55;9.40;;;5.03;;
54875;SDS011;40764;48.472;8.166;2023-04-24T18:19:55;97.10;;;37.30;;
54875;SDS011;40764;48.472;8.166;2023-04-24T18:25:55;202.18;;;73.00;;
54875;SDS011;40764;48.472;8.166;2023-04-24T18:31:56;70.83;;;29.90;;
54875;SDS011;40764;48.472;8.166;2023-04-24T18:37:56;7.55;;;4.20;;
54875;SDS011;40764;48.472;8.166;2023-04-24T18:43:56;7.03;;;3.10;;
54875;SDS011;40764;48.472;8.166;2023-04-24T18:49:58;5.00;;;3.13;;
54875;SDS011;40764;48.472;8.166;2023-04-24T18:55:58;9.98;;;4.85;;
54875;SDS011;40764;48.472;8.166;2023-04-24T19:01:58;8.57;;;4.17;;
54875;SDS011;40764;48.472;8.166;2023-04-24T19:07:59;37.57;;;15.97;;
54875;SDS011;40764;48.472;8.166;2023-04-24T19:13:59;5.80;;;3.37;;
54875;SDS011;40764;48.472;8.166;2023-04-24T19:20:03;5.90;;;3.03;;
54875;SDS011;40764;48.472;8.166;2023-04-24T19:26:04;101.77;;;28.77;;
54875;SDS011;40764;48.472;8.166;2023-04-24T19:32:04;54.03;;;19.30;;
54875;SDS011;40764;48.472;8.166;2023-04-24T19:38:05;41.45;;;15.68;;
54875;SDS011;40764;48.472;8.166;2023-04-24T19:44:05;29.07;;;10.30;;
54875;SDS011;40764;48.472;8.166;2023-04-24T19:50:06;87.55;;;27.83;;
54875;SDS011;40764;48.472;8.166;2023-04-24T19:56:06;32.07;;;12.30;;
54875;SDS011;40764;48.472;8.166;2023-04-24T20:02:07;28.30;;;9.60;;
54875;SDS011;40764;48.472;8.166;2023-04-24T20:08:09;21.27;;;9.82;;
54875;SDS011;40764;48.472;8.166;2023-04-24T20:14:10;15.10;;;6.90;;
54875;SDS011;40764;48.472;8.166;2023-04-24T20:20:10;28.23;;;11.53;;
54875;SDS011;40764;48.472;8.166;2023-04-24T20:26:11;8.00;;;4.53;;
54875;SDS011;40764;48.472;8.166;2023-04-24T20:32:11;11.25;;;4.28;;
54875;SDS011;40764;48.472;8.166;2023-04-24T20:38:11;30.17;;;14.15;;
54875;SDS011;40764;48.472;8.166;2023-04-24T20:44:13;32.60;;;12.83;;
54875;SDS011;40764;48.472;8.166;2023-04-24T20:50:13;39.38;;;14.82;;
54875;SDS011;40764;48.472;8.166;2023-04-24T20:56:14;56.53;;;20.05;;
54875;SDS011;40764;48.472;8.166;2023-04-24T21:08:15;55.33;;;17.10;;
54875;SDS011;40764;48.472;8.166;2023-04-24T21:14:16;25.80;;;8.10;;
54875;SDS011;40764;48.472;8.166;2023-04-24T21:20:16;43.93;;;14.13;;
54875;SDS011;40764;48.472;8.166;2023-04-24T21:26:17;12.68;;;5.93;;
54875;SDS011;40764;48.472;8.166;2023-04-24T21:32:17;41.27;;;11.13;;
54875;SDS011;40764;48.472;8.166;2023-04-24T21:38:18;36.30;;;11.63;;
54875;SDS011;40764;48.472;8.166;2023-04-24T21:44:23;36.17;;;11.40;;
54875;SDS011;40764;48.472;8.166;2023-04-24T21:50:24;5.17;;;3.00;;
54875;SDS011;40764;48.472;8.166;2023-04-24T21:56:24;7.93;;;3.50;;
54875;SDS011;40764;48.472;8.166;2023-04-24T22:02:25;8.50;;;2.57;;
54875;SDS011;40764;48.472;8.166;2023-04-24T22:08:25;9.97;;;5.67;;
54875;SDS011;40764;48.472;8.166;2023-04-24T22:14:26;4.75;;;2.85;;
54875;SDS011;40764;48.472;8.166;2023-04-24T22:20:26;5.03;;;2.57;;
54875;SDS011;40764;48.472;8.166;2023-04-24T22:26:26;5.93;;;2.97;;
54875;SDS011;40764;48.472;8.166;2023-04-24T22:32:27;4.23;;;3.20;;
54875;SDS011;40764;48.472;8.166;2023-04-24T22:38:30;4.95;;;3.35;;
54875;SDS011;40764;48.472;8.166;2023-04-24T22:44:30;8.97;;;3.07;;
54875;SDS011;40764;48.472;8.166;2023-04-24T22:50:31;4.37;;;2.80;;
54875;SDS011;40764;48.472;8.166;2023-04-24T22:56:32;6.25;;;3.35;;
54875;SDS011;40764;48.472;8.166;2023-04-24T23:02:33;5.25;;;2.75;;
54875;SDS011;40764;48.472;8.166;2023-04-24T23:08:33;5.97;;;2.73;;
54875;SDS011;40764;48.472;8.166;2023-04-24T23:14:33;5.75;;;2.75;;
54875;SDS011;40764;48.472;8.166;2023-04-24T23:20:34;11.63;;;3.23;;
54875;SDS011;40764;48.472;8.166;2023-04-24T23:26:34;4.33;;;2.40;;
54875;SDS011;40764;48.472;8.166;2023-04-24T23:32:36;5.22;;;2.55;;
54875;SDS011;40764;48.472;8.166;2023-04-24T23:38:36;5.43;;;2.90;;
54875;SDS011;40764;48.472;8.166;2023-04-24T23:44:36;8.43;;;2.73;;
54875;SDS011;40764;48.472;8.166;2023-04-24T23:50:37;4.70;;;2.70;;
54875;SDS011;40764;48.472;8.166;2023-04-24T23:56:37;8.53;;;2.90;;
